RJAN(METAR)
08/23 17:00
RJAN 230800Z 26013KT CAVOK 26/23 Q1006 RMK A2972=
戻る
トップページへ戻る
IMOC Co,.Ltd.